sensor_id;sensor_type;location;lat;lon;timestamp;temperature;humidity
23385;DHT22;11865;45.394;10.978;2023-07-31T00:01:40;24.00;99.90
23385;DHT22;11865;45.394;10.978;2023-07-31T00:04:08;24.10;99.80
23385;DHT22;11865;45.394;10.978;2023-07-31T00:06:35;24.10;99.90
23385;DHT22;11865;45.394;10.978;2023-07-31T00:09:03;24.00;99.90
23385;DHT22;11865;45.394;10.978;2023-07-31T00:11:30;24.00;99.80
23385;DHT22;11865;45.394;10.978;2023-07-31T00:13:58;24.00;99.90
23385;DHT22;11865;45.394;10.978;2023-07-31T00:16:26;24.00;99.90
23385;DHT22;11865;45.394;10.978;2023-07-31T00:18:53;24.00;99.80
23385;DHT22;11865;45.394;10.978;2023-07-31T00:21:21;24.00;99.60
23385;DHT22;11865;45.394;10.978;2023-07-31T00:23:48;24.00;99.50
23385;DHT22;11865;45.394;10.978;2023-07-31T00:26:16;24.00;99.90
23385;DHT22;11865;45.394;10.978;2023-07-31T00:28:43;24.00;99.50
23385;DHT22;11865;45.394;10.978;2023-07-31T00:31:11;24.00;99.40
23385;DHT22;11865;45.394;10.978;2023-07-31T00:33:38;24.00;99.40
23385;DHT22;11865;45.394;10.978;2023-07-31T00:36:06;23.90;99.30
23385;DHT22;11865;45.394;10.978;2023-07-31T00:38:34;23.90;99.60
23385;DHT22;11865;45.394;10.978;2023-07-31T00:41:01;23.90;99.50
23385;DHT22;11865;45.394;10.978;2023-07-31T00:43:29;23.80;99.50
23385;DHT22;11865;45.394;10.978;2023-07-31T00:45:56;23.90;99.70
23385;DHT22;11865;45.394;10.978;2023-07-31T00:48:25;23.90;99.50
23385;DHT22;11865;45.394;10.978;2023-07-31T00:50:53;23.80;99.20
23385;DHT22;11865;45.394;10.978;2023-07-31T00:53:21;23.80;99.30
23385;DHT22;11865;45.394;10.978;2023-07-31T00:55:50;23.80;99.30
23385;DHT22;11865;45.394;10.978;2023-07-31T00:58:18;23.80;99.20
23385;DHT22;11865;45.394;10.978;2023-07-31T01:00:45;23.80;99.10
23385;DHT22;11865;45.394;10.978;2023-07-31T01:03:13;23.80;99.40
23385;DHT22;11865;45.394;10.978;2023-07-31T01:08:37;23.80;99.10
23385;DHT22;11865;45.394;10.978;2023-07-31T01:11:17;23.80;99.10
23385;DHT22;11865;45.394;10.978;2023-07-31T01:13:47;23.80;99.20
23385;DHT22;11865;45.394;10.978;2023-07-31T01:16:15;23.70;99.20
23385;DHT22;11865;45.394;10.978;2023-07-31T01:18:42;23.70;99.80
23385;DHT22;11865;45.394;10.978;2023-07-31T01:21:38;23.60;99.10
23385;DHT22;11865;45.394;10.978;2023-07-31T01:24:22;23.60;99.10
23385;DHT22;11865;45.394;10.978;2023-07-31T01:27:06;23.60;99.30
23385;DHT22;11865;45.394;10.978;2023-07-31T01:32:18;23.60;99.20
23385;DHT22;11865;45.394;10.978;2023-07-31T01:34:46;23.60;99.30
23385;DHT22;11865;45.394;10.978;2023-07-31T01:37:15;23.50;99.20
23385;DHT22;11865;45.394;10.978;2023-07-31T01:39:43;23.60;99.30
23385;DHT22;11865;45.394;10.978;2023-07-31T01:42:11;23.60;99.30
23385;DHT22;11865;45.394;10.978;2023-07-31T01:44:38;23.60;99.50
23385;DHT22;11865;45.394;10.978;2023-07-31T01:47:06;23.50;99.90
23385;DHT22;11865;45.394;10.978;2023-07-31T01:49:34;23.50;99.90
23385;DHT22;11865;45.394;10.978;2023-07-31T01:52:02;23.50;99.70
23385;DHT22;11865;45.394;10.978;2023-07-31T01:54:30;23.50;99.50
23385;DHT22;11865;45.394;10.978;2023-07-31T01:56:57;23.50;99.60
23385;DHT22;11865;45.394;10.978;2023-07-31T01:59:25;23.50;99.70
23385;DHT22;11865;45.394;10.978;2023-07-31T02:01:52;23.50;99.70
23385;DHT22;11865;45.394;10.978;2023-07-31T02:04:21;23.40;99.70
23385;DHT22;11865;45.394;10.978;2023-07-31T02:06:48;23.40;99.70
23385;DHT22;11865;45.394;10.978;2023-07-31T02:09:16;23.40;99.60
23385;DHT22;11865;45.394;10.978;2023-07-31T02:11:44;23.40;99.80
23385;DHT22;11865;45.394;10.978;2023-07-31T02:14:11;23.40;99.60
23385;DHT22;11865;45.394;10.978;2023-07-31T02:16:39;23.30;99.60
23385;DHT22;11865;45.394;10.978;2023-07-31T02:19:07;23.40;99.10
23385;DHT22;11865;45.394;10.978;2023-07-31T02:21:34;23.40;99.10
23385;DHT22;11865;45.394;10.978;2023-07-31T02:24:02;23.40;99.00
23385;DHT22;11865;45.394;10.978;2023-07-31T02:26:29;23.40;99.10
23385;DHT22;11865;45.394;10.978;2023-07-31T02:28:57;23.40;99.10
23385;DHT22;11865;45.394;10.978;2023-07-31T02:31:25;23.30;99.40
23385;DHT22;11865;45.394;10.978;2023-07-31T02:33:52;23.30;99.40
23385;DHT22;11865;45.394;10.978;2023-07-31T02:36:21;23.30;99.30
23385;DHT22;11865;45.394;10.978;2023-07-31T02:38:48;23.30;99.20
23385;DHT22;11865;45.394;10.978;2023-07-31T02:41:16;23.30;99.10
23385;DHT22;11865;45.394;10.978;2023-07-31T02:43:43;23.30;99.30
23385;DHT22;11865;45.394;10.978;2023-07-31T02:46:11;23.30;99.40
23385;DHT22;11865;45.394;10.978;2023-07-31T02:48:38;23.30;99.60
23385;DHT22;11865;45.394;10.978;2023-07-31T02:51:06;23.30;99.20
23385;DHT22;11865;45.394;10.978;2023-07-31T02:53:33;23.30;99.20
23385;DHT22;11865;45.394;10.978;2023-07-31T02:56:01;23.30;99.20
23385;DHT22;11865;45.394;10.978;2023-07-31T02:58:29;23.30;99.60
23385;DHT22;11865;45.394;10.978;2023-07-31T03:00:58;23.30;99.40
23385;DHT22;11865;45.394;10.978;2023-07-31T03:03:26;23.20;99.90
23385;DHT22;11865;45.394;10.978;2023-07-31T03:05:54;23.00;99.90
23385;DHT22;11865;45.394;10.978;2023-07-31T03:08:21;23.00;99.90
23385;DHT22;11865;45.394;10.978;2023-07-31T03:10:49;23.00;99.90
23385;DHT22;11865;45.394;10.978;2023-07-31T03:13:16;22.80;99.90
23385;DHT22;11865;45.394;10.978;2023-07-31T03:15:44;22.50;99.90
23385;DHT22;11865;45.394;10.978;2023-07-31T03:18:12;22.30;99.90
23385;DHT22;11865;45.394;10.978;2023-07-31T03:20:43;22.30;99.90
23385;DHT22;11865;45.394;10.978;2023-07-31T03:23:11;22.20;99.90
23385;DHT22;11865;45.394;10.978;2023-07-31T03:25:41;22.10;99.90
23385;DHT22;11865;45.394;10.978;2023-07-31T03:28:09;22.00;99.90
23385;DHT22;11865;45.394;10.978;2023-07-31T03:30:36;21.90;99.90
23385;DHT22;11865;45.394;10.978;2023-07-31T03:33:05;21.90;99.90
23385;DHT22;11865;45.394;10.978;2023-07-31T03:35:32;21.90;99.90
23385;DHT22;11865;45.394;10.978;2023-07-31T03:38:00;21.80;99.90
23385;DHT22;11865;45.394;10.978;2023-07-31T03:40:28;21.80;99.90
23385;DHT22;11865;45.394;10.978;2023-07-31T03:42:55;21.70;99.90
23385;DHT22;11865;45.394;10.978;2023-07-31T03:45:23;21.80;99.90
23385;DHT22;11865;45.394;10.978;2023-07-31T03:47:50;21.70;99.90
23385;DHT22;11865;45.394;10.978;2023-07-31T03:50:18;21.80;99.90
23385;DHT22;11865;45.394;10.978;2023-07-31T03:52:45;22.00;99.90
23385;DHT22;11865;45.394;10.978;2023-07-31T03:55:13;22.20;99.90
23385;DHT22;11865;45.394;10.978;2023-07-31T03:57:41;22.20;99.90
23385;DHT22;11865;45.394;10.978;2023-07-31T04:00:09;22.30;99.90
23385;DHT22;11865;45.394;10.978;2023-07-31T04:02:41;22.40;99.90
23385;DHT22;11865;45.394;10.978;2023-07-31T04:05:08;22.60;99.90
23385;DHT22;11865;45.394;10.978;2023-07-31T04:07:37;22.70;99.90
23385;DHT22;11865;45.394;10.978;2023-07-31T04:10:05;22.80;99.90
23385;DHT22;11865;45.394;10.978;2023-07-31T04:12:32;22.90;99.90
23385;DHT22;11865;45.394;10.978;2023-07-31T04:15:00;22.90;99.90
23385;DHT22;11865;45.394;10.978;2023-07-31T04:17:27;23.00;99.90
23385;DHT22;11865;45.394;10.978;2023-07-31T04:19:55;23.10;99.90
23385;DHT22;11865;45.394;10.978;2023-07-31T04:22:22;23.20;99.90
23385;DHT22;11865;45.394;10.978;2023-07-31T04:24:50;23.30;99.90
23385;DHT22;11865;45.394;10.978;2023-07-31T04:27:17;23.30;99.90
23385;DHT22;11865;45.394;10.978;2023-07-31T04:29:45;23.20;99.90
23385;DHT22;11865;45.394;10.978;2023-07-31T04:32:14;23.30;99.90
23385;DHT22;11865;45.394;10.978;2023-07-31T04:34:44;23.40;99.90
23385;DHT22;11865;45.394;10.978;2023-07-31T04:37:11;23.40;99.90
23385;DHT22;11865;45.394;10.978;2023-07-31T04:39:39;23.50;99.90
23385;DHT22;11865;45.394;10.978;2023-07-31T04:42:07;23.50;99.90
23385;DHT22;11865;45.394;10.978;2023-07-31T04:44:35;23.50;99.90
23385;DHT22;11865;45.394;10.978;2023-07-31T04:47:02;23.60;99.90
23385;DHT22;11865;45.394;10.978;2023-07-31T04:49:31;23.60;99.90
23385;DHT22;11865;45.394;10.978;2023-07-31T04:51:58;23.60;99.90
23385;DHT22;11865;45.394;10.978;2023-07-31T04:54:26;23.70;99.90
23385;DHT22;11865;45.394;10.978;2023-07-31T04:56:54;23.80;99.90
23385;DHT22;11865;45.394;10.978;2023-07-31T04:59:21;23.80;99.90
23385;DHT22;11865;45.394;10.978;2023-07-31T05:01:50;23.90;99.90
23385;DHT22;11865;45.394;10.978;2023-07-31T05:04:17;24.00;99.90
23385;DHT22;11865;45.394;10.978;2023-07-31T05:06:45;24.10;99.90
23385;DHT22;11865;45.394;10.978;2023-07-31T05:09:12;24.10;99.90
23385;DHT22;11865;45.394;10.978;2023-07-31T05:11:40;24.20;99.90
23385;DHT22;11865;45.394;10.978;2023-07-31T05:14:10;24.10;99.90
23385;DHT22;11865;45.394;10.978;2023-07-31T05:16:37;24.00;99.90
23385;DHT22;11865;45.394;10.978;2023-07-31T05:19:05;24.00;99.90
23385;DHT22;11865;45.394;10.978;2023-07-31T05:21:33;24.10;99.90
23385;DHT22;11865;45.394;10.978;2023-07-31T05:24:00;24.20;99.90
23385;DHT22;11865;45.394;10.978;2023-07-31T05:26:28;24.10;99.90
23385;DHT22;11865;45.394;10.978;2023-07-31T05:28:55;24.30;99.90
23385;DHT22;11865;45.394;10.978;2023-07-31T05:31:23;24.20;99.90
23385;DHT22;11865;45.394;10.978;2023-07-31T05:33:51;24.30;99.90
23385;DHT22;11865;45.394;10.978;2023-07-31T05:36:19;24.40;99.90
23385;DHT22;11865;45.394;10.978;2023-07-31T05:38:46;24.50;99.90
23385;DHT22;11865;45.394;10.978;2023-07-31T05:41:14;24.60;99.90
23385;DHT22;11865;45.394;10.978;2023-07-31T05:43:41;24.70;99.90
23385;DHT22;11865;45.394;10.978;2023-07-31T05:46:10;24.70;99.90
23385;DHT22;11865;45.394;10.978;2023-07-31T05:48:39;24.70;99.90
23385;DHT22;11865;45.394;10.978;2023-07-31T05:51:06;24.80;99.90
23385;DHT22;11865;45.394;10.978;2023-07-31T05:53:34;24.80;99.90
23385;DHT22;11865;45.394;10.978;2023-07-31T05:56:03;24.90;99.90
23385;DHT22;11865;45.394;10.978;2023-07-31T05:58:31;24.90;99.90
23385;DHT22;11865;45.394;10.978;2023-07-31T06:00:58;24.90;98.30
23385;DHT22;11865;45.394;10.978;2023-07-31T06:03:25;25.10;98.20
23385;DHT22;11865;45.394;10.978;2023-07-31T06:05:53;25.70;97.80
23385;DHT22;11865;45.394;10.978;2023-07-31T06:08:21;26.00;96.30
23385;DHT22;11865;45.394;10.978;2023-07-31T06:10:48;26.60;94.80
23385;DHT22;11865;45.394;10.978;2023-07-31T06:13:16;27.80;93.50
23385;DHT22;11865;45.394;10.978;2023-07-31T06:15:43;28.80;91.20
23385;DHT22;11865;45.394;10.978;2023-07-31T06:18:11;29.80;89.10
23385;DHT22;11865;45.394;10.978;2023-07-31T06:20:39;29.80;87.60
23385;DHT22;11865;45.394;10.978;2023-07-31T06:23:07;29.70;90.00
23385;DHT22;11865;45.394;10.978;2023-07-31T06:25:35;28.90;87.00
23385;DHT22;11865;45.394;10.978;2023-07-31T06:28:03;29.70;90.30
23385;DHT22;11865;45.394;10.978;2023-07-31T06:30:30;29.80;89.00
23385;DHT22;11865;45.394;10.978;2023-07-31T06:32:58;29.90;86.80
23385;DHT22;11865;45.394;10.978;2023-07-31T06:35:26;29.80;90.30
23385;DHT22;11865;45.394;10.978;2023-07-31T06:37:53;29.50;88.00
23385;DHT22;11865;45.394;10.978;2023-07-31T06:40:22;29.50;89.10
23385;DHT22;11865;45.394;10.978;2023-07-31T06:42:50;29.60;87.90
23385;DHT22;11865;45.394;10.978;2023-07-31T06:45:17;29.90;86.80
23385;DHT22;11865;45.394;10.978;2023-07-31T06:47:45;30.40;83.30
23385;DHT22;11865;45.394;10.978;2023-07-31T06:50:12;31.20;80.30
23385;DHT22;11865;45.394;10.978;2023-07-31T06:52:40;31.40;82.60
23385;DHT22;11865;45.394;10.978;2023-07-31T06:55:21;31.50;80.60
23385;DHT22;11865;45.394;10.978;2023-07-31T06:57:50;32.20;82.40
23385;DHT22;11865;45.394;10.978;2023-07-31T07:00:20;32.00;77.80
23385;DHT22;11865;45.394;10.978;2023-07-31T07:02:48;31.50;81.90
23385;DHT22;11865;45.394;10.978;2023-07-31T07:05:17;32.30;78.40
23385;DHT22;11865;45.394;10.978;2023-07-31T07:07:45;32.00;78.70
23385;DHT22;11865;45.394;10.978;2023-07-31T07:10:12;32.30;78.20
23385;DHT22;11865;45.394;10.978;2023-07-31T07:12:40;32.70;76.00
23385;DHT22;11865;45.394;10.978;2023-07-31T07:15:08;32.50;74.40
23385;DHT22;11865;45.394;10.978;2023-07-31T07:17:36;32.20;75.40
23385;DHT22;11865;45.394;10.978;2023-07-31T07:20:04;30.50;79.30
23385;DHT22;11865;45.394;10.978;2023-07-31T07:22:32;30.70;82.50
23385;DHT22;11865;45.394;10.978;2023-07-31T07:24:59;30.80;82.60
23385;DHT22;11865;45.394;10.978;2023-07-31T07:27:27;29.80;85.30
23385;DHT22;11865;45.394;10.978;2023-07-31T07:29:54;29.20;87.40
23385;DHT22;11865;45.394;10.978;2023-07-31T07:32:22;29.30;89.40
23385;DHT22;11865;45.394;10.978;2023-07-31T07:34:49;29.10;90.00
23385;DHT22;11865;45.394;10.978;2023-07-31T07:37:17;29.00;88.90
23385;DHT22;11865;45.394;10.978;2023-07-31T07:39:45;29.60;87.80
23385;DHT22;11865;45.394;10.978;2023-07-31T07:42:12;29.50;90.00
23385;DHT22;11865;45.394;10.978;2023-07-31T07:44:40;29.40;90.00
23385;DHT22;11865;45.394;10.978;2023-07-31T07:47:07;29.50;88.70
23385;DHT22;11865;45.394;10.978;2023-07-31T07:49:35;29.30;89.00
23385;DHT22;11865;45.394;10.978;2023-07-31T07:52:03;29.00;90.10
23385;DHT22;11865;45.394;10.978;2023-07-31T07:54:31;28.60;90.90
23385;DHT22;11865;45.394;10.978;2023-07-31T07:56:59;29.10;90.90
23385;DHT22;11865;45.394;10.978;2023-07-31T07:59:27;29.30;89.50
23385;DHT22;11865;45.394;10.978;2023-07-31T08:01:54;29.50;88.40
23385;DHT22;11865;45.394;10.978;2023-07-31T08:04:22;28.90;89.20
23385;DHT22;11865;45.394;10.978;2023-07-31T08:06:49;28.90;89.40
23385;DHT22;11865;45.394;10.978;2023-07-31T08:09:17;28.80;89.80
23385;DHT22;11865;45.394;10.978;2023-07-31T08:11:44;28.50;90.80
23385;DHT22;11865;45.394;10.978;2023-07-31T08:14:12;28.70;90.70
23385;DHT22;11865;45.394;10.978;2023-07-31T08:16:39;30.20;90.00
23385;DHT22;11865;45.394;10.978;2023-07-31T08:19:07;30.50;86.90
23385;DHT22;11865;45.394;10.978;2023-07-31T08:21:35;30.50;87.70
23385;DHT22;11865;45.394;10.978;2023-07-31T08:24:03;30.40;86.10
23385;DHT22;11865;45.394;10.978;2023-07-31T08:26:30;30.70;85.90
23385;DHT22;11865;45.394;10.978;2023-07-31T08:28:58;30.00;85.50
23385;DHT22;11865;45.394;10.978;2023-07-31T08:31:26;29.90;84.60
23385;DHT22;11865;45.394;10.978;2023-07-31T08:33:54;29.70;85.10
23385;DHT22;11865;45.394;10.978;2023-07-31T08:36:21;28.70;83.70
23385;DHT22;11865;45.394;10.978;2023-07-31T08:38:49;28.80;85.20
23385;DHT22;11865;45.394;10.978;2023-07-31T08:41:17;29.00;84.00
23385;DHT22;11865;45.394;10.978;2023-07-31T08:43:49;29.30;85.90
23385;DHT22;11865;45.394;10.978;2023-07-31T08:46:18;29.60;88.00
23385;DHT22;11865;45.394;10.978;2023-07-31T08:48:46;29.50;85.10
23385;DHT22;11865;45.394;10.978;2023-07-31T08:51:14;29.20;84.30
23385;DHT22;11865;45.394;10.978;2023-07-31T08:53:43;28.70;82.50
23385;DHT22;11865;45.394;10.978;2023-07-31T08:56:11;28.80;82.30
23385;DHT22;11865;45.394;10.978;2023-07-31T08:58:40;29.20;85.10
23385;DHT22;11865;45.394;10.978;2023-07-31T09:01:07;29.10;82.20
23385;DHT22;11865;45.394;10.978;2023-07-31T09:03:36;29.10;82.70
23385;DHT22;11865;45.394;10.978;2023-07-31T09:06:05;29.10;82.80
23385;DHT22;11865;45.394;10.978;2023-07-31T09:08:34;29.20;82.30
23385;DHT22;11865;45.394;10.978;2023-07-31T09:11:02;28.70;80.50
23385;DHT22;11865;45.394;10.978;2023-07-31T09:13:32;28.70;81.50
23385;DHT22;11865;45.394;10.978;2023-07-31T09:16:00;29.10;85.60
23385;DHT22;11865;45.394;10.978;2023-07-31T09:18:28;29.20;82.30
23385;DHT22;11865;45.394;10.978;2023-07-31T09:21:05;28.90;78.60
23385;DHT22;11865;45.394;10.978;2023-07-31T09:23:46;29.10;79.10
23385;DHT22;11865;45.394;10.978;2023-07-31T09:26:36;29.10;80.40
23385;DHT22;11865;45.394;10.978;2023-07-31T09:29:05;29.00;80.50
23385;DHT22;11865;45.394;10.978;2023-07-31T09:31:43;29.10;81.60
23385;DHT22;11865;45.394;10.978;2023-07-31T09:34:11;29.00;80.00
23385;DHT22;11865;45.394;10.978;2023-07-31T09:36:44;29.00;81.40
23385;DHT22;11865;45.394;10.978;2023-07-31T09:39:13;28.80;81.00
23385;DHT22;11865;45.394;10.978;2023-07-31T09:41:47;28.90;81.90
23385;DHT22;11865;45.394;10.978;2023-07-31T09:44:14;28.80;82.30
23385;DHT22;11865;45.394;10.978;2023-07-31T09:46:42;29.30;83.20
23385;DHT22;11865;45.394;10.978;2023-07-31T09:49:12;29.20;83.60
23385;DHT22;11865;45.394;10.978;2023-07-31T09:51:41;29.10;82.00
23385;DHT22;11865;45.394;10.978;2023-07-31T09:54:13;29.00;80.80
23385;DHT22;11865;45.394;10.978;2023-07-31T09:56:43;29.30;81.50
23385;DHT22;11865;45.394;10.978;2023-07-31T09:59:16;29.30;81.90
23385;DHT22;11865;45.394;10.978;2023-07-31T10:01:46;29.20;83.20
23385;DHT22;11865;45.394;10.978;2023-07-31T10:04:14;29.20;81.10
23385;DHT22;11865;45.394;10.978;2023-07-31T10:06:43;29.40;82.20
23385;DHT22;11865;45.394;10.978;2023-07-31T10:09:15;29.50;81.10
23385;DHT22;11865;45.394;10.978;2023-07-31T10:11:57;29.40;78.90
23385;DHT22;11865;45.394;10.978;2023-07-31T10:14:27;29.40;80.40
23385;DHT22;11865;45.394;10.978;2023-07-31T10:16:57;29.50;80.50
23385;DHT22;11865;45.394;10.978;2023-07-31T10:19:26;29.50;81.70
23385;DHT22;11865;45.394;10.978;2023-07-31T10:21:54;29.30;81.80
23385;DHT22;11865;45.394;10.978;2023-07-31T10:24:24;29.30;79.30
23385;DHT22;11865;45.394;10.978;2023-07-31T10:26:53;29.50;80.70
23385;DHT22;11865;45.394;10.978;2023-07-31T10:29:23;29.60;79.10
23385;DHT22;11865;45.394;10.978;2023-07-31T10:31:52;29.40;80.30
23385;DHT22;11865;45.394;10.978;2023-07-31T10:34:19;29.60;80.00
23385;DHT22;11865;45.394;10.978;2023-07-31T10:36:47;29.60;79.70
23385;DHT22;11865;45.394;10.978;2023-07-31T10:39:33;29.50;77.60
23385;DHT22;11865;45.394;10.978;2023-07-31T10:42:14;29.40;79.40
23385;DHT22;11865;45.394;10.978;2023-07-31T10:44:46;29.40;79.20
23385;DHT22;11865;45.394;10.978;2023-07-31T10:47:15;29.30;82.90
23385;DHT22;11865;45.394;10.978;2023-07-31T10:49:46;29.30;82.00
23385;DHT22;11865;45.394;10.978;2023-07-31T10:52:19;29.50;81.40
23385;DHT22;11865;45.394;10.978;2023-07-31T10:55:16;29.60;80.50
23385;DHT22;11865;45.394;10.978;2023-07-31T10:57:49;29.60;80.20
23385;DHT22;11865;45.394;10.978;2023-07-31T11:00:27;29.40;80.60
23385;DHT22;11865;45.394;10.978;2023-07-31T11:08:44;29.60;82.30
23385;DHT22;11865;45.394;10.978;2023-07-31T11:11:16;29.50;83.30
23385;DHT22;11865;45.394;10.978;2023-07-31T11:13:52;29.70;81.60
23385;DHT22;11865;45.394;10.978;2023-07-31T11:16:22;29.60;80.00
23385;DHT22;11865;45.394;10.978;2023-07-31T11:18:50;29.50;80.40
23385;DHT22;11865;45.394;10.978;2023-07-31T11:21:21;29.60;81.60
23385;DHT22;11865;45.394;10.978;2023-07-31T11:23:55;29.40;80.70
23385;DHT22;11865;45.394;10.978;2023-07-31T11:26:25;29.50;81.60
23385;DHT22;11865;45.394;10.978;2023-07-31T11:28:54;29.40;80.70
23385;DHT22;11865;45.394;10.978;2023-07-31T11:31:22;29.10;80.50
23385;DHT22;11865;45.394;10.978;2023-07-31T11:33:50;29.30;81.70
23385;DHT22;11865;45.394;10.978;2023-07-31T11:36:19;29.30;81.70
23385;DHT22;11865;45.394;10.978;2023-07-31T11:38:47;29.40;80.40
23385;DHT22;11865;45.394;10.978;2023-07-31T11:41:16;29.50;80.80
23385;DHT22;11865;45.394;10.978;2023-07-31T11:43:46;29.70;81.10
23385;DHT22;11865;45.394;10.978;2023-07-31T11:46:15;29.50;81.30
23385;DHT22;11865;45.394;10.978;2023-07-31T11:48:43;29.50;80.70
23385;DHT22;11865;45.394;10.978;2023-07-31T11:51:12;29.20;81.00
23385;DHT22;11865;45.394;10.978;2023-07-31T11:56:10;29.40;83.10
23385;DHT22;11865;45.394;10.978;2023-07-31T11:58:39;29.60;82.40
23385;DHT22;11865;45.394;10.978;2023-07-31T12:01:08;29.50;81.00
23385;DHT22;11865;45.394;10.978;2023-07-31T12:03:36;29.60;82.20
23385;DHT22;11865;45.394;10.978;2023-07-31T12:06:04;29.70;83.20
23385;DHT22;11865;45.394;10.978;2023-07-31T12:08:32;29.70;81.80
23385;DHT22;11865;45.394;10.978;2023-07-31T12:11:04;29.40;80.90
23385;DHT22;11865;45.394;10.978;2023-07-31T12:13:33;29.60;80.90
23385;DHT22;11865;45.394;10.978;2023-07-31T12:16:02;29.60;82.00
23385;DHT22;11865;45.394;10.978;2023-07-31T12:18:36;29.40;78.70
23385;DHT22;11865;45.394;10.978;2023-07-31T12:21:06;29.80;78.30
23385;DHT22;11865;45.394;10.978;2023-07-31T12:23:35;29.80;81.40
23385;DHT22;11865;45.394;10.978;2023-07-31T12:26:11;29.90;78.00
23385;DHT22;11865;45.394;10.978;2023-07-31T12:31:22;30.00;78.20
23385;DHT22;11865;45.394;10.978;2023-07-31T12:33:51;30.00;77.40
23385;DHT22;11865;45.394;10.978;2023-07-31T12:36:23;29.80;76.20
23385;DHT22;11865;45.394;10.978;2023-07-31T12:38:51;29.70;75.70
23385;DHT22;11865;45.394;10.978;2023-07-31T12:41:19;29.70;75.00
23385;DHT22;11865;45.394;10.978;2023-07-31T12:43:47;29.80;75.10
23385;DHT22;11865;45.394;10.978;2023-07-31T12:46:14;29.80;73.50
23385;DHT22;11865;45.394;10.978;2023-07-31T12:48:43;29.90;74.10
23385;DHT22;11865;45.394;10.978;2023-07-31T12:51:11;30.10;76.20
23385;DHT22;11865;45.394;10.978;2023-07-31T12:53:38;29.70;76.90
23385;DHT22;11865;45.394;10.978;2023-07-31T12:56:06;29.80;76.60
23385;DHT22;11865;45.394;10.978;2023-07-31T12:58:33;30.00;78.20
23385;DHT22;11865;45.394;10.978;2023-07-31T13:01:01;30.00;77.30
23385;DHT22;11865;45.394;10.978;2023-07-31T13:03:29;30.30;79.20
23385;DHT22;11865;45.394;10.978;2023-07-31T13:05:57;30.00;76.20
23385;DHT22;11865;45.394;10.978;2023-07-31T13:08:25;30.20;77.70
23385;DHT22;11865;45.394;10.978;2023-07-31T13:10:52;30.30;75.90
23385;DHT22;11865;45.394;10.978;2023-07-31T13:13:20;30.20;75.50
23385;DHT22;11865;45.394;10.978;2023-07-31T13:15:48;30.20;77.00
23385;DHT22;11865;45.394;10.978;2023-07-31T13:18:16;30.10;79.10
23385;DHT22;11865;45.394;10.978;2023-07-31T13:20:43;30.00;76.10
23385;DHT22;11865;45.394;10.978;2023-07-31T13:23:11;29.80;74.90
23385;DHT22;11865;45.394;10.978;2023-07-31T13:25:38;29.70;75.20
23385;DHT22;11865;45.394;10.978;2023-07-31T13:28:06;30.00;74.80
23385;DHT22;11865;45.394;10.978;2023-07-31T13:30:33;29.90;76.00
23385;DHT22;11865;45.394;10.978;2023-07-31T13:33:01;30.10;74.30
23385;DHT22;11865;45.394;10.978;2023-07-31T13:35:29;30.30;76.20
23385;DHT22;11865;45.394;10.978;2023-07-31T13:37:58;30.30;75.50
23385;DHT22;11865;45.394;10.978;2023-07-31T13:40:26;30.30;75.10
23385;DHT22;11865;45.394;10.978;2023-07-31T13:42:53;30.50;74.20
23385;DHT22;11865;45.394;10.978;2023-07-31T13:45:21;30.40;76.40
23385;DHT22;11865;45.394;10.978;2023-07-31T13:47:50;29.90;76.70
23385;DHT22;11865;45.394;10.978;2023-07-31T13:50:18;30.00;76.80
23385;DHT22;11865;45.394;10.978;2023-07-31T13:52:48;30.00;74.90
23385;DHT22;11865;45.394;10.978;2023-07-31T13:55:16;30.20;75.60
23385;DHT22;11865;45.394;10.978;2023-07-31T13:57:43;30.30;77.00
23385;DHT22;11865;45.394;10.978;2023-07-31T14:00:12;30.40;75.80
23385;DHT22;11865;45.394;10.978;2023-07-31T14:02:39;30.40;77.50
23385;DHT22;11865;45.394;10.978;2023-07-31T14:05:07;30.50;76.80
23385;DHT22;11865;45.394;10.978;2023-07-31T14:07:36;30.40;77.80
23385;DHT22;11865;45.394;10.978;2023-07-31T14:10:05;30.20;78.70
23385;DHT22;11865;45.394;10.978;2023-07-31T14:12:32;30.10;79.40
23385;DHT22;11865;45.394;10.978;2023-07-31T14:15:10;30.10;78.40
23385;DHT22;11865;45.394;10.978;2023-07-31T14:17:38;29.70;80.10
23385;DHT22;11865;45.394;10.978;2023-07-31T14:20:07;29.90;79.30
23385;DHT22;11865;45.394;10.978;2023-07-31T14:22:35;30.00;78.70
23385;DHT22;11865;45.394;10.978;2023-07-31T14:25:02;30.10;77.00
23385;DHT22;11865;45.394;10.978;2023-07-31T14:27:30;30.20;80.30
23385;DHT22;11865;45.394;10.978;2023-07-31T14:29:57;30.00;78.50
23385;DHT22;11865;45.394;10.978;2023-07-31T14:32:25;30.20;79.20
23385;DHT22;11865;45.394;10.978;2023-07-31T14:34:53;30.20;79.20
23385;DHT22;11865;45.394;10.978;2023-07-31T14:37:22;30.10;78.80
23385;DHT22;11865;45.394;10.978;2023-07-31T14:39:49;30.50;78.10
23385;DHT22;11865;45.394;10.978;2023-07-31T14:42:18;30.40;78.40
23385;DHT22;11865;45.394;10.978;2023-07-31T14:44:47;30.30;78.90
23385;DHT22;11865;45.394;10.978;2023-07-31T14:47:14;30.10;79.40
23385;DHT22;11865;45.394;10.978;2023-07-31T14:49:42;30.10;77.20
23385;DHT22;11865;45.394;10.978;2023-07-31T14:52:10;30.40;78.20
23385;DHT22;11865;45.394;10.978;2023-07-31T14:54:37;30.30;77.90
23385;DHT22;11865;45.394;10.978;2023-07-31T14:57:05;30.40;77.90
23385;DHT22;11865;45.394;10.978;2023-07-31T14:59:32;30.40;75.10
23385;DHT22;11865;45.394;10.978;2023-07-31T15:02:00;30.10;77.50
23385;DHT22;11865;45.394;10.978;2023-07-31T15:04:28;30.30;78.10
23385;DHT22;11865;45.394;10.978;2023-07-31T15:06:55;30.40;78.30
23385;DHT22;11865;45.394;10.978;2023-07-31T15:09:23;30.30;77.20
23385;DHT22;11865;45.394;10.978;2023-07-31T15:11:50;30.30;79.20
23385;DHT22;11865;45.394;10.978;2023-07-31T15:14:18;30.20;78.40
23385;DHT22;11865;45.394;10.978;2023-07-31T15:16:46;30.40;78.70
23385;DHT22;11865;45.394;10.978;2023-07-31T15:19:15;30.60;75.70
23385;DHT22;11865;45.394;10.978;2023-07-31T15:21:42;30.80;74.30
23385;DHT22;11865;45.394;10.978;2023-07-31T15:24:10;30.70;73.20
23385;DHT22;11865;45.394;10.978;2023-07-31T15:26:37;30.80;75.00
23385;DHT22;11865;45.394;10.978;2023-07-31T15:29:06;30.80;78.90
23385;DHT22;11865;45.394;10.978;2023-07-31T15:31:38;30.50;79.50
23385;DHT22;11865;45.394;10.978;2023-07-31T15:34:06;30.70;79.40
23385;DHT22;11865;45.394;10.978;2023-07-31T15:36:34;30.40;80.60
23385;DHT22;11865;45.394;10.978;2023-07-31T15:39:01;30.50;76.50
23385;DHT22;11865;45.394;10.978;2023-07-31T15:41:29;30.50;75.90